Time;durP1;ratioP1;P1;durP2;ratioP2;P2;SDS_P1;SDS_P2;PMS_P1;PMS_P2;Temp;Humidity;BMP_temperature;BMP_pressure;BME280_temperature;BME280_humidity;BME280_pressure;Samples;Min_cycle;Max_cycle;Signal;HPM_P1;HPM_P2
2021/07/16 00:01:42;;;;;;;17.15;8.65;;;17.50;99.90;;;;;;4919752;29;20219;-82
2021/07/16 00:04:08;;;;;;;17.70;9.43;;;17.60;99.90;;;;;;4902404;29;20215;-83
2021/07/16 00:06:34;;;;;;;19.40;9.85;;;17.60;99.90;;;;;;4919377;29;20171;-82
2021/07/16 00:09:00;;;;;;;11.55;9.00;;;17.50;99.90;;;;;;4934000;29;20171;-83
2021/07/16 00:11:27;;;;;;;18.08;9.43;;;17.40;99.90;;;;;;4919166;29;20645;-82
2021/07/16 00:13:52;;;;;;;17.02;8.75;;;17.30;99.90;;;;;;4933847;28;20198;-83
2021/07/16 00:16:18;;;;;;;15.55;9.15;;;17.40;99.90;;;;;;4919297;29;20208;-83
2021/07/16 00:18:44;;;;;;;10.80;8.70;;;17.40;99.90;;;;;;4933598;29;20164;-83
2021/07/16 00:21:11;;;;;;;17.27;7.68;;;17.30;99.90;;;;;;4902119;29;20184;-82
2021/07/16 00:23:38;;;;;;;21.10;9.90;;;17.20;99.90;;;;;;4919042;29;20172;-82
2021/07/16 00:26:07;;;;;;;21.02;8.90;;;17.30;99.90;;;;;;4918770;29;20168;-82
2021/07/16 00:28:32;;;;;;;15.50;9.15;;;17.40;99.90;;;;;;4918845;29;20168;-83
2021/07/16 00:30:58;;;;;;;12.77;9.00;;;17.10;99.90;;;;;;4901701;29;20180;-82
2021/07/16 00:33:23;;;;;;;16.08;8.10;;;17.20;99.90;;;;;;4918538;29;20634;-83
2021/07/16 00:35:49;;;;;;;19.40;9.18;;;17.20;99.90;;;;;;4918905;29;20220;-82
2021/07/16 00:38:15;;;;;;;17.77;8.57;;;17.20;99.90;;;;;;4918861;29;20168;-83
2021/07/16 00:40:42;;;;;;;20.17;8.95;;;17.00;99.90;;;;;;4918865;29;20172;-83
2021/07/16 00:43:08;;;;;;;13.70;9.38;;;17.00;99.90;;;;;;4901699;29;20171;-83
2021/07/16 00:45:33;;;;;;;19.40;9.45;;;17.10;99.90;;;;;;4919494;29;20195;-83
2021/07/16 00:48:00;;;;;;;10.23;8.75;;;17.10;99.90;;;;;;4933236;29;20191;-82
2021/07/16 00:50:34;;;;;;;17.67;10.43;;;17.30;99.90;;;;;;4918402;29;20595;-83
2021/07/16 00:53:01;;;;;;;14.23;9.63;;;17.50;99.90;;;;;;4918555;29;20167;-82
2021/07/16 00:55:30;;;;;;;12.60;8.18;;;17.60;99.90;;;;;;4900919;29;20561;-84
2021/07/16 00:57:56;;;;;;;16.92;9.38;;;17.70;99.90;;;;;;4932867;28;20267;-84
2021/07/16 01:00:22;;;;;;;12.95;10.00;;;17.80;99.90;;;;;;4918199;29;20172;-83
2021/07/16 01:02:47;;;;;;;12.85;8.75;;;17.90;99.90;;;;;;4918375;29;20172;-83
2021/07/16 01:05:15;;;;;;;12.95;9.02;;;17.60;99.90;;;;;;4901510;29;20756;-83
2021/07/16 01:07:42;;;;;;;15.75;8.55;;;17.50;99.90;;;;;;4901539;29;20223;-82
2021/07/16 01:10:10;;;;;;;14.10;8.68;;;17.40;99.90;;;;;;4901106;29;20176;-83
2021/07/16 01:12:39;;;;;;;13.73;9.00;;;17.40;99.90;;;;;;4918087;29;20223;-83
2021/07/16 01:15:07;;;;;;;18.92;8.70;;;17.50;99.90;;;;;;4917788;29;20212;-83
2021/07/16 01:17:33;;;;;;;9.40;8.18;;;17.70;99.90;;;;;;4901136;29;20176;-82
2021/07/16 01:20:13;;;;;;;14.15;8.90;;;17.70;99.90;;;;;;4932745;29;20644;-84
2021/07/16 01:22:42;;;;;;;17.00;10.10;;;17.60;99.90;;;;;;4900897;29;20182;-83
2021/07/16 01:25:13;;;;;;;15.93;8.45;;;17.60;99.90;;;;;;4900889;29;20191;-83
2021/07/16 01:27:40;;;;;;;11.63;8.20;;;17.70;99.90;;;;;;4900734;29;20175;-82
2021/07/16 01:30:10;;;;;;;16.63;8.82;;;17.60;99.90;;;;;;4900943;29;20172;-82
2021/07/16 01:32:39;;;;;;;8.88;8.05;;;17.70;99.90;;;;;;4900967;29;20182;-82
2021/07/16 01:35:06;;;;;;;11.00;9.18;;;17.70;99.90;;;;;;4917800;29;20597;-82
2021/07/16 01:37:32;;;;;;;20.13;8.55;;;17.70;99.90;;;;;;4917905;29;20582;-82
2021/07/16 01:39:59;;;;;;;13.77;9.32;;;17.80;99.90;;;;;;4900771;29;20291;-82
2021/07/16 01:42:36;;;;;;;13.45;8.57;;;17.80;99.90;;;;;;4917946;29;20172;-82
2021/07/16 01:45:08;;;;;;;9.18;8.25;;;17.80;99.90;;;;;;4916728;29;20231;-81
2021/07/16 01:47:34;;;;;;;10.80;9.60;;;17.90;99.90;;;;;;4917652;29;20569;-82
2021/07/16 01:50:03;;;;;;;14.43;8.82;;;17.70;99.90;;;;;;4900788;29;20171;-82
2021/07/16 01:52:29;;;;;;;15.95;8.77;;;17.30;99.90;;;;;;4917729;29;20179;-82
2021/07/16 01:54:54;;;;;;;14.65;8.35;;;17.30;99.90;;;;;;4917249;29;20195;-82
2021/07/16 01:57:20;;;;;;;16.27;9.00;;;17.30;99.90;;;;;;4917652;29;20179;-82
2021/07/16 01:59:45;;;;;;;12.70;9.35;;;17.50;99.90;;;;;;4931913;29;20255;-82
2021/07/16 02:02:11;;;;;;;9.65;8.68;;;17.40;99.90;;;;;;4917376;29;20172;-82
2021/07/16 02:04:37;;;;;;;19.85;9.40;;;17.30;99.90;;;;;;4931729;28;20310;-82
2021/07/16 02:07:03;;;;;;;15.65;9.45;;;17.40;99.90;;;;;;4900364;29;20648;-82
2021/07/16 02:09:29;;;;;;;17.73;9.13;;;17.40;99.90;;;;;;4917132;29;20221;-82
2021/07/16 02:11:57;;;;;;;20.75;8.95;;;17.40;99.90;;;;;;4917011;29;20171;-82
2021/07/16 02:14:24;;;;;;;11.80;8.90;;;17.30;99.90;;;;;;4900189;29;20291;-83
2021/07/16 02:16:50;;;;;;;12.00;10.18;;;17.20;99.90;;;;;;4934557;29;20203;-82
2021/07/16 02:19:16;;;;;;;17.63;9.15;;;17.20;99.90;;;;;;4918954;29;20622;-83
2021/07/16 02:21:41;;;;;;;12.40;9.40;;;17.40;99.90;;;;;;4918906;29;20227;-81
2021/07/16 02:24:07;;;;;;;19.05;9.80;;;17.50;99.90;;;;;;4918891;29;20708;-81
2021/07/16 02:26:33;;;;;;;21.42;9.90;;;17.50;99.90;;;;;;4935830;29;20644;-81
2021/07/16 02:28:58;;;;;;;17.77;9.18;;;17.60;99.90;;;;;;4918987;29;20270;-82
2021/07/16 02:31:24;;;;;;;16.73;9.65;;;17.30;99.90;;;;;;4935713;29;20222;-82
2021/07/16 02:33:49;;;;;;;17.02;10.18;;;17.20;99.90;;;;;;4918898;29;20167;-82
2021/07/16 02:36:17;;;;;;;20.42;9.77;;;17.10;99.90;;;;;;4935698;29;20594;-82
2021/07/16 02:38:43;;;;;;;22.75;10.07;;;17.10;99.90;;;;;;4918845;29;20206;-82
2021/07/16 02:41:09;;;;;;;19.08;10.02;;;17.10;99.90;;;;;;4918850;29;20202;-81
2021/07/16 02:43:36;;;;;;;18.27;9.05;;;17.00;99.90;;;;;;4935762;29;20175;-82
2021/07/16 02:46:02;;;;;;;21.83;10.18;;;17.00;99.90;;;;;;4918335;29;20620;-83
2021/07/16 02:48:27;;;;;;;23.40;9.95;;;16.80;99.90;;;;;;4935828;29;20226;-83
2021/07/16 02:50:53;;;;;;;29.35;9.95;;;16.80;99.90;;;;;;4918715;29;20174;-81
2021/07/16 02:53:22;;;;;;;17.52;10.75;;;16.70;99.90;;;;;;4918796;29;20230;-81
2021/07/16 02:55:49;;;;;;;24.48;9.80;;;16.60;99.90;;;;;;4918076;29;20298;-83
2021/07/16 02:58:15;;;;;;;21.58;10.70;;;16.50;99.90;;;;;;4918227;29;20238;-83
2021/07/16 03:00:41;;;;;;;28.77;10.88;;;16.60;99.90;;;;;;4918016;29;20205;-83
2021/07/16 03:03:07;;;;;;;25.05;10.60;;;16.60;99.90;;;;;;4935343;29;20195;-83
2021/07/16 03:05:35;;;;;;;31.10;10.30;;;16.80;99.90;;;;;;4935272;29;20215;-83
2021/07/16 03:08:01;;;;;;;26.00;10.35;;;16.80;99.90;;;;;;4935268;29;20205;-83
2021/07/16 03:10:29;;;;;;;18.75;9.10;;;16.90;99.90;;;;;;4935355;29;20172;-82
2021/07/16 03:12:56;;;;;;;28.50;11.05;;;16.80;99.90;;;;;;4918673;29;20206;-81
2021/07/16 03:15:24;;;;;;;25.13;9.80;;;16.80;99.90;;;;;;4935298;29;20242;-81
2021/07/16 03:17:50;;;;;;;33.75;10.10;;;16.70;99.90;;;;;;4935813;29;20163;-82
2021/07/16 03:20:19;;;;;;;25.95;10.85;;;16.70;99.90;;;;;;4918621;29;20175;-83
2021/07/16 03:22:45;;;;;;;20.23;9.95;;;16.80;99.90;;;;;;4918701;29;20521;-83
2021/07/16 03:25:13;;;;;;;28.17;11.07;;;16.60;99.90;;;;;;4918324;29;20198;-83
2021/07/16 03:27:39;;;;;;;26.85;10.50;;;16.80;99.90;;;;;;4918591;29;20633;-84
2021/07/16 03:30:07;;;;;;;18.52;9.93;;;16.90;99.90;;;;;;4936195;29;20166;-81
2021/07/16 03:32:34;;;;;;;28.67;11.73;;;16.90;99.90;;;;;;4935640;29;20211;-82
2021/07/16 03:35:00;;;;;;;32.85;10.23;;;16.80;99.90;;;;;;4934964;29;20198;-82
2021/07/16 03:37:25;;;;;;;20.23;9.27;;;16.70;99.90;;;;;;4918678;29;20183;-82
2021/07/16 03:39:51;;;;;;;21.42;9.90;;;16.70;99.90;;;;;;4935099;29;20172;-82
2021/07/16 03:42:20;;;;;;;19.30;9.30;;;16.90;99.90;;;;;;4935034;29;20578;-82
2021/07/16 03:44:46;;;;;;;15.10;8.93;;;16.90;99.90;;;;;;4918051;29;20246;-82
2021/07/16 03:47:13;;;;;;;21.83;10.13;;;16.80;99.90;;;;;;4935051;29;20203;-82
2021/07/16 03:49:39;;;;;;;28.10;10.45;;;16.90;99.90;;;;;;4935417;29;20175;-82
2021/07/16 03:52:05;;;;;;;14.02;8.98;;;16.80;99.90;;;;;;4918186;29;20183;-80
2021/07/16 03:54:31;;;;;;;11.13;9.50;;;16.60;99.90;;;;;;4917837;29;20190;-82
2021/07/16 03:56:57;;;;;;;20.75;8.80;;;16.50;99.90;;;;;;4934589;29;20240;-82
2021/07/16 03:59:22;;;;;;;20.20;9.18;;;16.50;99.90;;;;;;4935024;29;20171;-81
2021/07/16 04:01:48;;;;;;;21.17;8.95;;;16.50;99.90;;;;;;4935034;29;20293;-81
2021/07/16 04:04:15;;;;;;;19.40;8.48;;;16.50;99.90;;;;;;4934811;29;20222;-82
2021/07/16 04:06:42;;;;;;;20.73;9.02;;;16.50;99.90;;;;;;4917927;29;20183;-82
2021/07/16 04:09:26;;;;;;;20.15;9.25;;;16.60;99.90;;;;;;4937481;29;20164;-81
2021/07/16 04:12:05;;;;;;;26.17;9.48;;;16.60;99.90;;;;;;4921011;29;20234;-82
2021/07/16 04:14:36;;;;;;;15.32;8.13;;;16.60;99.90;;;;;;4921146;29;20218;-82
2021/07/16 04:17:06;;;;;;;16.48;8.07;;;16.60;99.90;;;;;;4937946;29;20676;-81
2021/07/16 04:19:31;;;;;;;19.27;7.90;;;16.60;99.90;;;;;;4938141;29;20167;-82
2021/07/16 04:21:57;;;;;;;14.38;7.63;;;16.50;99.90;;;;;;4938131;29;20197;-82
2021/07/16 04:24:23;;;;;;;20.15;8.05;;;16.50;99.90;;;;;;4920905;29;20195;-81
2021/07/16 04:26:48;;;;;;;12.20;7.55;;;16.50;99.90;;;;;;4937867;29;20183;-82
2021/07/16 04:29:14;;;;;;;20.13;7.93;;;16.60;99.90;;;;;;4920954;29;20171;-82
2021/07/16 04:31:40;;;;;;;13.43;7.85;;;16.70;99.90;;;;;;4937936;29;20171;-81
2021/07/16 04:34:05;;;;;;;13.90;7.45;;;16.70;99.90;;;;;;4937775;29;20541;-82
2021/07/16 04:36:31;;;;;;;17.70;7.60;;;16.80;99.90;;;;;;4938133;29;20531;-82
2021/07/16 04:38:57;;;;;;;12.20;7.05;;;16.90;99.90;;;;;;4937930;29;20175;-81
2021/07/16 04:41:22;;;;;;;12.32;8.18;;;17.00;99.90;;;;;;4937579;29;20234;-82
2021/07/16 04:43:48;;;;;;;18.58;7.30;;;17.10;99.90;;;;;;4937760;29;20180;-82
2021/07/16 04:46:13;;;;;;;10.95;7.50;;;17.10;99.90;;;;;;4920529;29;20183;-81
2021/07/16 04:48:39;;;;;;;12.18;8.02;;;17.10;99.90;;;;;;4920761;29;20167;-82
2021/07/16 04:51:06;;;;;;;12.20;6.40;;;17.20;99.90;;;;;;4920586;29;20222;-83
2021/07/16 04:53:32;;;;;;;17.83;7.75;;;17.10;99.90;;;;;;4920512;29;20510;-82
2021/07/16 04:55:57;;;;;;;15.05;7.47;;;17.10;99.90;;;;;;4920536;29;20254;-82
2021/07/16 04:58:23;;;;;;;13.75;7.07;;;17.10;99.90;;;;;;4937802;29;20255;-82
2021/07/16 05:00:49;;;;;;;13.60;6.65;;;17.00;99.90;;;;;;4937313;29;20734;-82
2021/07/16 05:03:14;;;;;;;12.75;6.63;;;17.00;99.90;;;;;;4920545;29;20527;-81
2021/07/16 05:05:40;;;;;;;10.43;6.15;;;17.00;99.90;;;;;;4937319;29;20591;-82
2021/07/16 05:08:06;;;;;;;12.55;6.28;;;17.10;99.90;;;;;;4920136;29;20218;-81
2021/07/16 05:10:32;;;;;;;12.90;6.60;;;17.40;99.90;;;;;;4920189;29;20171;-82
2021/07/16 05:12:57;;;;;;;13.23;5.97;;;17.20;99.90;;;;;;4920117;29;21181;-82
2021/07/16 05:15:23;;;;;;;16.50;6.68;;;17.20;99.90;;;;;;4936539;29;20217;-81
2021/07/16 05:17:49;;;;;;;15.95;6.50;;;17.10;99.90;;;;;;4919820;29;20637;-82
2021/07/16 05:20:14;;;;;;;10.55;5.60;;;17.10;99.90;;;;;;4937378;29;20258;-82
2021/07/16 05:22:40;;;;;;;15.40;6.25;;;17.00;99.90;;;;;;4937136;29;20254;-82
2021/07/16 05:25:07;;;;;;;11.57;5.72;;;17.00;99.90;;;;;;4936878;29;20567;-82
2021/07/16 05:27:33;;;;;;;9.80;6.00;;;17.10;99.90;;;;;;4919828;29;20533;-82
2021/07/16 05:29:58;;;;;;;18.70;6.18;;;17.20;99.90;;;;;;4936692;29;20187;-81
2021/07/16 05:32:24;;;;;;;17.65;6.38;;;17.00;99.90;;;;;;4919271;29;20199;-82
2021/07/16 05:34:50;;;;;;;20.17;7.65;;;17.00;99.90;;;;;;4935498;29;20549;-81
2021/07/16 05:37:15;;;;;;;10.95;5.72;;;17.00;99.90;;;;;;4936705;29;20215;-81
2021/07/16 05:39:41;;;;;;;13.90;5.80;;;17.20;99.90;;;;;;4937056;29;20172;-82
2021/07/16 05:42:06;;;;;;;21.63;6.05;;;17.20;99.90;;;;;;4937042;29;20179;-82
2021/07/16 05:44:33;;;;;;;8.60;6.00;;;17.20;99.90;;;;;;4936379;29;20546;-82
2021/07/16 05:46:58;;;;;;;10.65;5.97;;;17.30;99.90;;;;;;4935102;29;20167;-83
2021/07/16 05:49:24;;;;;;;23.38;6.50;;;17.40;99.90;;;;;;4919664;29;20186;-82
2021/07/16 05:51:50;;;;;;;12.30;6.60;;;17.50;99.90;;;;;;4919196;29;20539;-82
2021/07/16 05:54:15;;;;;;;12.65;6.25;;;17.70;99.90;;;;;;4934947;29;20677;-82
2021/07/16 05:56:43;;;;;;;13.70;5.88;;;17.40;99.90;;;;;;4936087;29;20215;-82
2021/07/16 05:59:08;;;;;;;22.88;6.47;;;17.60;99.90;;;;;;4936255;29;20168;-82
2021/07/16 06:01:34;;;;;;;11.07;6.20;;;17.70;99.90;;;;;;4936067;29;20183;-83
2021/07/16 06:04:03;;;;;;;13.63;6.00;;;17.80;99.90;;;;;;4934463;29;20695;-83
2021/07/16 06:06:29;;;;;;;12.60;6.00;;;17.50;99.90;;;;;;4934818;29;20191;-82
2021/07/16 06:08:55;;;;;;;18.23;5.57;;;17.40;99.90;;;;;;4934746;29;20598;-82
2021/07/16 06:11:20;;;;;;;37.83;6.32;;;17.50;99.90;;;;;;4934480;29;20179;-82
2021/07/16 06:13:46;;;;;;;12.23;5.63;;;17.40;99.90;;;;;;4918465;29;20175;-82
2021/07/16 06:16:12;;;;;;;12.35;5.20;;;17.30;99.90;;;;;;4935902;29;20214;-82
2021/07/16 06:18:40;;;;;;;16.08;5.45;;;17.30;99.90;;;;;;4935500;29;20362;-79
2021/07/16 06:21:06;;;;;;;11.07;4.97;;;17.60;99.90;;;;;;4935484;29;20171;-79
2021/07/16 06:23:32;;;;;;;8.43;4.93;;;17.60;99.90;;;;;;4935531;29;20190;-79
2021/07/16 06:25:57;;;;;;;9.98;4.78;;;17.50;99.90;;;;;;4935037;29;20529;-79
2021/07/16 06:28:23;;;;;;;13.20;5.65;;;17.70;99.90;;;;;;4935133;29;20624;-80
2021/07/16 06:30:49;;;;;;;11.25;4.47;;;17.50;99.90;;;;;;4934595;29;20667;-79
2021/07/16 06:33:14;;;;;;;10.15;4.50;;;17.60;99.90;;;;;;4935058;29;20167;-79
2021/07/16 06:35:40;;;;;;;9.02;5.50;;;17.60;99.90;;;;;;4934997;29;20219;-79
2021/07/16 06:38:06;;;;;;;20.55;5.70;;;17.80;99.90;;;;;;4935272;29;20171;-79
2021/07/16 06:40:31;;;;;;;14.23;4.97;;;18.00;99.90;;;;;;4935509;29;20175;-79
2021/07/16 06:42:57;;;;;;;20.80;4.78;;;18.00;99.90;;;;;;4935382;29;20206;-79
2021/07/16 06:45:23;;;;;;;14.32;5.35;;;18.20;99.90;;;;;;4935219;29;20219;-79
2021/07/16 06:47:48;;;;;;;15.27;5.45;;;18.30;99.90;;;;;;4935056;29;20194;-81
2021/07/16 06:50:14;;;;;;;16.75;4.78;;;18.50;99.90;;;;;;4929891;29;20548;-80
2021/07/16 06:52:39;;;;;;;13.00;5.85;;;18.70;99.90;;;;;;4930177;29;20171;-81
2021/07/16 06:55:06;;;;;;;12.38;4.25;;;18.90;99.90;;;;;;4918214;29;20180;-79
2021/07/16 06:57:32;;;;;;;10.48;4.82;;;18.70;99.90;;;;;;4935132;29;20585;-80
2021/07/16 06:59:57;;;;;;;11.68;5.40;;;18.70;99.90;;;;;;4934730;29;20262;-81
2021/07/16 07:02:23;;;;;;;15.02;5.82;;;18.80;99.90;;;;;;4935050;29;20246;-90
2021/07/16 07:04:49;;;;;;;11.18;4.90;;;18.90;99.90;;;;;;4917855;29;20305;-80
2021/07/16 07:07:14;;;;;;;10.52;4.68;;;19.00;99.90;;;;;;4934717;29;20651;-80
2021/07/16 07:09:40;;;;;;;9.32;4.53;;;19.10;99.90;;;;;;4934948;29;20167;-81
2021/07/16 07:12:06;;;;;;;8.50;4.78;;;19.40;99.90;;;;;;4918018;29;20181;-78
2021/07/16 07:14:31;;;;;;;14.85;4.40;;;19.20;99.90;;;;;;4935015;29;20191;-82
2021/07/16 07:16:57;;;;;;;9.02;4.60;;;19.10;99.90;;;;;;4917693;29;20302;-82
2021/07/16 07:19:22;;;;;;;11.95;4.20;;;19.20;99.90;;;;;;4918546;29;20167;-81
2021/07/16 07:21:48;;;;;;;12.13;4.57;;;19.30;99.90;;;;;;4931617;29;20235;-81
2021/07/16 07:24:14;;;;;;;13.02;5.43;;;19.60;99.90;;;;;;4924551;29;20191;-81
2021/07/16 07:26:39;;;;;;;14.02;5.22;;;19.50;99.90;;;;;;4930268;29;20229;-82
2021/07/16 07:29:05;;;;;;;10.05;4.32;;;19.60;99.90;;;;;;4918419;29;20622;-87
2021/07/16 07:31:31;;;;;;;8.60;4.45;;;19.70;99.90;;;;;;4934908;29;20176;-82
2021/07/16 07:33:57;;;;;;;8.82;4.57;;;19.80;99.90;;;;;;4918124;29;20215;-86
2021/07/16 07:36:23;;;;;;;8.75;4.55;;;19.60;99.90;;;;;;4936389;29;20739;-84
2021/07/16 07:38:48;;;;;;;9.27;4.97;;;19.80;99.90;;;;;;4936040;29;20680;-83
2021/07/16 07:41:15;;;;;;;8.57;4.00;;;19.90;99.90;;;;;;4933621;29;20175;-83
2021/07/16 07:43:41;;;;;;;16.48;4.25;;;20.30;99.90;;;;;;4935441;29;20167;-83
2021/07/16 07:46:06;;;;;;;14.23;4.07;;;20.50;99.90;;;;;;4939084;29;20984;-84
2021/07/16 07:48:32;;;;;;;8.82;4.88;;;20.20;99.90;;;;;;4938415;29;20171;-83
2021/07/16 07:50:58;;;;;;;8.38;4.28;;;19.60;99.90;;;;;;4938001;29;20171;-84
2021/07/16 07:53:24;;;;;;;7.55;4.00;;;19.10;99.90;;;;;;4939634;29;20175;-84
2021/07/16 07:55:50;;;;;;;13.55;4.90;;;19.20;99.90;;;;;;4938604;29;20242;-83
2021/07/16 07:58:15;;;;;;;9.55;4.53;;;18.80;99.90;;;;;;4937417;29;20266;-83
2021/07/16 08:00:41;;;;;;;13.60;5.03;;;18.80;99.90;;;;;;4938235;29;20640;-82
2021/07/16 08:03:07;;;;;;;8.93;4.43;;;18.90;99.90;;;;;;4938412;29;20178;-85
2021/07/16 08:05:33;;;;;;;12.30;4.50;;;18.90;99.90;;;;;;4921126;29;20215;-81
2021/07/16 08:07:58;;;;;;;19.00;4.82;;;19.00;99.90;;;;;;4937364;29;20173;-82
2021/07/16 08:10:24;;;;;;;15.20;4.68;;;19.10;99.90;;;;;;4936998;29;20531;-83
2021/07/16 08:12:50;;;;;;;16.45;5.65;;;19.10;99.90;;;;;;4937434;29;20171;-84
2021/07/16 08:15:17;;;;;;;12.70;4.85;;;19.00;99.90;;;;;;4938396;29;20187;-84
2021/07/16 08:17:43;;;;;;;9.95;4.38;;;18.90;99.90;;;;;;4937760;29;20210;-85
2021/07/16 08:20:09;;;;;;;12.75;4.47;;;18.60;99.90;;;;;;4938574;29;20215;-83
2021/07/16 08:22:40;;;;;;;19.08;4.93;;;18.60;99.90;;;;;;4938893;29;20214;-82
2021/07/16 08:25:07;;;;;;;9.05;3.95;;;18.80;99.90;;;;;;4937194;29;20195;-85
2021/07/16 08:27:33;;;;;;;10.38;3.72;;;18.80;99.90;;;;;;4936809;29;20175;-82
2021/07/16 08:29:59;;;;;;;11.80;4.50;;;18.80;99.90;;;;;;4938052;29;20168;-84
2021/07/16 08:32:24;;;;;;;19.65;3.90;;;19.10;99.90;;;;;;4937036;29;20640;-85
2021/07/16 08:34:50;;;;;;;11.27;4.55;;;18.70;99.90;;;;;;4937099;29;20285;-85
2021/07/16 08:37:15;;;;;;;8.25;3.95;;;18.40;99.90;;;;;;4936276;29;20709;-83
2021/07/16 08:39:44;;;;;;;14.15;3.72;;;18.60;99.90;;;;;;4920478;29;20172;-84
2021/07/16 08:42:19;;;;;;;9.32;4.05;;;18.40;99.90;;;;;;4936345;29;20262;-85
2021/07/16 08:44:45;;;;;;;13.00;3.88;;;18.30;99.90;;;;;;4936355;29;20727;-84
2021/07/16 08:47:30;;;;;;;8.25;3.67;;;18.40;99.90;;;;;;4936503;29;20258;-83
2021/07/16 08:49:58;;;;;;;19.65;5.72;;;18.50;99.90;;;;;;4937862;29;20506;-84
2021/07/16 08:52:25;;;;;;;12.88;3.67;;;18.70;99.90;;;;;;4936992;29;20585;-84
2021/07/16 08:54:51;;;;;;;10.23;3.38;;;18.80;99.90;;;;;;4919936;29;20196;-85
2021/07/16 09:00:29;;;;;;;10.57;3.78;;;19.20;99.90;;;;;;4931083;29;20175;-85
2021/07/16 09:03:05;;;;;;;12.43;4.40;;;19.20;99.90;;;;;;4933114;29;20217;-83
2021/07/16 09:05:49;;;;;;;10.25;4.43;;;19.20;99.90;;;;;;4936942;29;20258;-84
2021/07/16 09:08:20;;;;;;;11.30;3.83;;;19.30;99.90;;;;;;4921352;29;20171;-84
2021/07/16 09:10:57;;;;;;;13.23;4.13;;;19.30;99.90;;;;;;4925983;29;20188;-85
2021/07/16 09:13:25;;;;;;;15.18;4.38;;;19.20;99.90;;;;;;4911702;29;20175;-84
2021/07/16 09:15:59;;;;;;;11.52;3.58;;;19.30;99.90;;;;;;4937530;29;20214;-87
2021/07/16 09:18:32;;;;;;;22.17;4.53;;;19.10;99.90;;;;;;4916748;29;20251;-89
2021/07/16 09:21:04;;;;;;;9.40;3.78;;;19.00;99.90;;;;;;4917069;29;20620;-84
2021/07/16 09:23:32;;;;;;;17.20;4.53;;;19.00;99.90;;;;;;4933360;29;20203;-83
2021/07/16 09:26:11;;;;;;;14.88;3.65;;;19.40;99.90;;;;;;4932566;29;20199;-83
2021/07/16 09:28:39;;;;;;;13.45;3.80;;;19.60;99.90;;;;;;4916660;29;20163;-87
2021/07/16 09:31:22;;;;;;;19.85;3.75;;;19.60;99.90;;;;;;4920910;29;20278;-85
2021/07/16 09:33:53;;;;;;;11.88;4.50;;;19.70;99.90;;;;;;4920694;29;20600;-89
2021/07/16 09:36:38;;;;;;;9.85;3.05;;;19.10;99.90;;;;;;4937175;29;20211;-85
2021/07/16 09:39:11;;;;;;;13.65;4.25;;;19.10;99.90;;;;;;4920134;29;20656;-85
2021/07/16 09:41:53;;;;;;;19.73;3.75;;;19.40;99.90;;;;;;4919908;29;20175;-85
2021/07/16 09:44:40;;;;;;;10.43;4.22;;;19.80;99.90;;;;;;4920385;29;20294;-85
2021/07/16 09:47:20;;;;;;;12.45;3.40;;;19.60;99.90;;;;;;4920511;29;20652;-86
2021/07/16 09:50:05;;;;;;;20.65;3.80;;;19.60;99.90;;;;;;4919825;29;20179;-87
2021/07/16 09:52:30;;;;;;;13.77;3.17;;;19.70;99.90;;;;;;4919874;29;20171;-84
2021/07/16 09:55:08;;;;;;;11.80;3.30;;;19.70;99.90;;;;;;4920259;29;20278;-85
2021/07/16 09:57:42;;;;;;;22.02;3.80;;;19.90;99.90;;;;;;4919785;29;20195;-84
2021/07/16 10:00:27;;;;;;;15.55;3.70;;;20.00;99.90;;;;;;4919766;29;20260;-85
2021/07/16 10:03:01;;;;;;;14.55;3.45;;;20.20;99.90;;;;;;4936628;29;20171;-87
2021/07/16 10:05:29;;;;;;;13.95;3.42;;;20.10;99.90;;;;;;4919102;29;20214;-87
2021/07/16 10:07:55;;;;;;;23.25;3.25;;;20.10;99.90;;;;;;4920319;29;20175;-87
2021/07/16 10:10:22;;;;;;;12.45;3.28;;;19.70;99.90;;;;;;4918774;29;20242;-86
2021/07/16 10:12:49;;;;;;;17.05;4.70;;;19.50;99.90;;;;;;4937919;29;20213;-83
2021/07/16 10:15:18;;;;;;;14.60;4.00;;;19.50;99.90;;;;;;4953801;29;20198;-86
2021/07/16 10:18:07;;;;;;;15.13;3.65;;;19.30;99.90;;;;;;4940602;29;20608;-85
2021/07/16 10:20:34;;;;;;;14.57;3.78;;;19.20;99.90;;;;;;4918617;29;20183;-89
2021/07/16 10:23:01;;;;;;;5.90;3.38;;;19.10;99.90;;;;;;4918349;29;20175;-87
2021/07/16 10:25:27;;;;;;;15.82;4.03;;;19.10;99.90;;;;;;4900912;29;20198;-83
2021/07/16 10:27:53;;;;;;;13.05;4.18;;;19.10;99.90;;;;;;4904468;29;20203;-86
2021/07/16 10:30:20;;;;;;;20.23;4.05;;;19.10;99.90;;;;;;4935158;29;20214;-84
2021/07/16 10:32:46;;;;;;;13.18;4.13;;;19.40;99.90;;;;;;4936830;29;20167;-84
2021/07/16 10:35:24;;;;;;;26.88;4.55;;;19.40;99.90;;;;;;4936237;29;20191;-85
2021/07/16 10:37:52;;;;;;;13.75;3.47;;;19.20;99.90;;;;;;4936395;29;20734;-85
2021/07/16 10:40:44;;;;;;;11.50;3.22;;;19.20;99.90;;;;;;4919372;29;20202;-87
2021/07/16 10:43:30;;;;;;;8.00;3.38;;;19.20;99.90;;;;;;4932072;29;20713;-89
2021/07/16 10:46:00;;;;;;;25.92;3.83;;;19.20;99.90;;;;;;4900754;29;20218;-86
2021/07/16 10:48:31;;;;;;;9.70;3.17;;;19.40;99.90;;;;;;4901392;29;20164;-85
2021/07/16 10:50:58;;;;;;;12.88;2.90;;;19.20;99.90;;;;;;4910095;29;20191;-85
2021/07/16 10:53:27;;;;;;;7.05;2.80;;;19.70;99.90;;;;;;4910085;29;20266;-85
2021/07/16 10:55:55;;;;;;;11.75;3.00;;;20.20;99.90;;;;;;4914692;29;20720;-83
2021/07/16 10:58:34;;;;;;;11.25;3.15;;;20.30;99.90;;;;;;4898365;29;20176;-83
2021/07/16 11:01:15;;;;;;;18.17;3.38;;;19.90;99.90;;;;;;4916875;29;20254;-83
2021/07/16 11:03:51;;;;;;;12.10;3.42;;;19.90;99.90;;;;;;4900275;29;20184;-83
2021/07/16 11:06:21;;;;;;;8.98;2.90;;;20.00;99.90;;;;;;4916490;29;20175;-84
2021/07/16 11:08:51;;;;;;;19.10;3.53;;;20.10;99.90;;;;;;4899381;29;20908;-83
2021/07/16 11:11:20;;;;;;;14.38;3.72;;;20.00;99.90;;;;;;4899816;29;20176;-83
2021/07/16 11:13:54;;;;;;;19.00;3.85;;;19.90;99.90;;;;;;4900223;29;20538;-84
2021/07/16 11:16:27;;;;;;;14.70;3.33;;;19.60;99.90;;;;;;4915542;29;20278;-83
2021/07/16 11:19:03;;;;;;;14.38;3.47;;;19.10;99.90;;;;;;4900210;29;20187;-84
2021/07/16 11:21:46;;;;;;;11.88;3.40;;;18.90;99.90;;;;;;4899553;29;20179;-83
2021/07/16 11:24:18;;;;;;;19.20;3.45;;;19.10;99.90;;;;;;4899393;29;20657;-83
2021/07/16 11:26:53;;;;;;;27.00;3.42;;;19.40;99.90;;;;;;4914803;29;20219;-84
2021/07/16 11:29:22;;;;;;;12.65;3.50;;;19.60;99.90;;;;;;4898975;29;20195;-83
2021/07/16 11:32:00;;;;;;;13.88;3.53;;;19.60;99.90;;;;;;4898737;29;20175;-84
2021/07/16 11:34:26;;;;;;;12.35;3.00;;;19.80;99.90;;;;;;4899190;29;20199;-84
2021/07/16 11:36:53;;;;;;;16.70;3.47;;;19.80;99.90;;;;;;4915946;29;20218;-83
2021/07/16 11:39:50;;;;;;;22.05;3.75;;;19.80;99.90;;;;;;4915744;29;20266;-84
2021/07/16 11:42:15;;;;;;;15.05;3.22;;;19.70;99.90;;;;;;4915370;29;20292;-82
2021/07/16 11:44:41;;;;;;;18.40;3.10;;;19.90;99.90;;;;;;4898707;29;20281;-81
2021/07/16 11:47:27;;;;;;;13.43;2.85;;;19.80;99.90;;;;;;4898796;29;20176;-82
2021/07/16 11:49:59;;;;;;;16.40;3.30;;;19.70;99.90;;;;;;4915507;29;20179;-81
2021/07/16 11:52:30;;;;;;;12.57;3.08;;;19.80;99.90;;;;;;4915801;29;20521;-82
2021/07/16 11:55:07;;;;;;;17.83;3.80;;;19.90;99.90;;;;;;4915904;29;20201;-81
2021/07/16 11:57:33;;;;;;;10.48;3.63;;;19.80;99.90;;;;;;4898622;29;20223;-81
2021/07/16 12:00:00;;;;;;;15.38;3.67;;;19.60;99.90;;;;;;4898699;29;20172;-82
2021/07/16 12:02:25;;;;;;;9.38;3.83;;;19.80;99.90;;;;;;4899056;29;20218;-83
2021/07/16 12:04:57;;;;;;;14.23;4.03;;;20.10;99.90;;;;;;4915613;29;20658;-82
2021/07/16 12:07:23;;;;;;;12.18;3.72;;;20.50;99.90;;;;;;4898666;29;20630;-83
2021/07/16 12:09:49;;;;;;;13.07;3.40;;;20.70;99.90;;;;;;4915693;29;20232;-83
2021/07/16 12:12:21;;;;;;;12.55;3.47;;;21.10;99.90;;;;;;4915632;29;20659;-83
2021/07/16 12:14:54;;;;;;;8.73;3.70;;;21.50;99.90;;;;;;4914578;29;20228;-81
2021/07/16 12:17:24;;;;;;;11.15;4.03;;;21.50;99.90;;;;;;4916214;29;20251;-82
2021/07/16 12:19:51;;;;;;;17.83;3.47;;;21.40;99.90;;;;;;4899148;29;20176;-82
2021/07/16 12:22:21;;;;;;;17.42;3.55;;;21.70;99.90;;;;;;4903476;29;20176;-83
2021/07/16 12:24:47;;;;;;;10.85;3.42;;;21.90;99.90;;;;;;4920881;29;20191;-81
2021/07/16 12:27:14;;;;;;;8.63;3.58;;;22.20;99.90;;;;;;4904042;29;20231;-85
2021/07/16 12:29:40;;;;;;;7.40;3.72;;;22.00;99.90;;;;;;4908982;29;20637;-82
2021/07/16 12:32:09;;;;;;;15.75;4.78;;;21.90;99.90;;;;;;4908795;29;20176;-81
2021/07/16 12:34:35;;;;;;;8.43;3.47;;;21.70;99.90;;;;;;4934442;29;20222;-82
2021/07/16 12:37:07;;;;;;;11.45;3.65;;;21.20;99.90;;;;;;4934518;29;20219;-81
2021/07/16 12:39:33;;;;;;;11.25;3.80;;;20.80;99.90;;;;;;4928487;29;20187;-82
2021/07/16 12:42:24;;;;;;;10.52;3.75;;;20.80;99.90;;;;;;4926368;29;20176;-83
2021/07/16 12:45:06;;;;;;;18.75;4.72;;;20.90;99.90;;;;;;4907421;29;20200;-83
2021/07/16 12:47:32;;;;;;;16.90;4.68;;;20.80;99.90;;;;;;4919525;29;20172;-81